createdAt,value
2023-02-02T00:00:20.249Z,12.4
2023-02-02T00:05:20.215Z,13.1
2023-02-02T00:10:20.365Z,12.5
2023-02-02T00:15:20.384Z,12.2
2023-02-02T00:20:20.274Z,11.5
2023-02-02T00:25:20.342Z,11.1
2023-02-02T00:30:17.268Z,12.1
2023-02-02T00:35:17.352Z,12.4
2023-02-02T00:40:20.726Z,11.8
2023-02-02T00:45:20.360Z,10.9
2023-02-02T00:50:20.392Z,11.9
2023-02-02T00:55:20.455Z,11.3
2023-02-02T01:00:20.513Z,10.3
2023-02-02T01:05:20.517Z,10.4
2023-02-02T01:10:20.514Z,10.8
2023-02-02T01:15:20.571Z,11.1
2023-02-02T01:20:20.547Z,12.5
2023-02-02T01:25:17.355Z,13.1
2023-02-02T01:30:20.583Z,11.1
2023-02-02T01:35:20.672Z,9.9
2023-02-02T01:40:20.443Z,10.0
2023-02-02T01:45:18.673Z,11.5
2023-02-02T01:50:18.759Z,12.4
2023-02-02T01:55:18.555Z,10.9
2023-02-02T02:00:15.576Z,11.7
2023-02-02T02:05:15.498Z,12.1
2023-02-02T02:10:18.679Z,11.8
2023-02-02T02:15:18.755Z,11.3
2023-02-02T02:20:18.632Z,11.8
2023-02-02T02:25:18.870Z,12.4
2023-02-02T02:30:18.726Z,9.8
2023-02-02T02:35:18.685Z,9.3
2023-02-02T02:40:18.720Z,9.5
2023-02-02T02:45:18.765Z,10.3
2023-02-02T02:50:18.794Z,11.2
2023-02-02T02:55:15.697Z,10.3
2023-02-02T03:00:15.612Z,11.1
2023-02-02T03:05:18.894Z,10.2
2023-02-02T03:10:18.814Z,10.4
2023-02-02T03:15:18.920Z,10.0
2023-02-02T03:20:18.947Z,10.8
2023-02-02T03:25:18.900Z,10.6
2023-02-02T03:30:18.962Z,11.0
2023-02-02T03:35:18.959Z,12.0
2023-02-02T03:40:18.850Z,11.5
2023-02-02T03:45:18.841Z,11.0
2023-02-02T03:50:15.903Z,10.2
2023-02-02T03:55:15.852Z,10.8
2023-02-02T04:00:18.984Z,10.0
2023-02-02T04:05:19.008Z,10.7
2023-02-02T04:10:18.921Z,10.3
2023-02-02T04:15:19.076Z,9.8
2023-02-02T04:20:19.048Z,10.2
2023-02-02T04:25:19.004Z,9.6
2023-02-02T04:30:19.063Z,10.3
2023-02-02T04:35:19.052Z,9.9
2023-02-02T04:40:19.130Z,9.8
2023-02-02T04:45:16.057Z,10.4
2023-02-02T04:50:19.201Z,10.0
2023-02-02T04:55:19.117Z,10.0
2023-02-02T05:00:20.389Z,10.1
2023-02-02T05:05:20.407Z,10.1
2023-02-02T05:10:17.271Z,9.9
2023-02-02T05:15:17.351Z,9.7
2023-02-02T05:20:20.509Z,9.7
2023-02-02T05:25:20.466Z,10.0
2023-02-02T05:30:20.535Z,10.0
2023-02-02T05:35:20.565Z,9.7
2023-02-02T05:40:20.411Z,9.3
2023-02-02T05:45:20.563Z,9.7
2023-02-02T05:50:20.602Z,9.3
2023-02-02T05:55:20.631Z,9.3
2023-02-02T06:00:20.609Z,9.4
2023-02-02T06:05:17.463Z,9.3
2023-02-02T06:10:18.587Z,9.9
2023-02-02T06:15:18.598Z,10.0
2023-02-02T06:20:21.315Z,10.1
2023-02-02T06:25:18.694Z,9.8
2023-02-02T06:30:18.658Z,10.0
2023-02-02T06:35:18.636Z,10.2
2023-02-02T06:40:18.718Z,9.3
2023-02-02T06:45:15.656Z,9.8
2023-02-02T06:50:15.597Z,10.3
2023-02-02T06:55:18.769Z,9.9
2023-02-02T07:00:20.447Z,10.0
2023-02-02T07:05:18.867Z,10.0
2023-02-02T07:11:13.794Z,10.1
2023-02-02T07:15:18.764Z,10.6
2023-02-02T07:20:18.749Z,10.3
2023-02-02T07:25:18.787Z,10.0
2023-02-02T07:30:18.918Z,10.1
2023-02-02T07:35:18.821Z,10.5
2023-02-02T07:40:15.921Z,10.2
2023-02-02T07:45:27.244Z,10.1
2023-02-02T07:50:18.903Z,10.1
2023-02-02T07:55:19.067Z,10.1
2023-02-02T08:00:18.932Z,10.5
2023-02-02T08:05:18.945Z,10.5
2023-02-02T08:10:18.869Z,10.1
2023-02-02T08:15:18.955Z,10.8
2023-02-02T08:20:19.034Z,11.6
2023-02-02T08:25:18.957Z,10.5
2023-02-02T08:30:15.841Z,10.4
2023-02-02T08:35:15.808Z,10.4
2023-02-02T08:40:19.141Z,10.4
2023-02-02T08:46:02.036Z,11.1
2023-02-02T08:50:19.059Z,10.7
2023-02-02T08:55:19.060Z,10.6
2023-02-02T09:00:19.119Z,10.3
2023-02-02T09:05:19.065Z,10.6
2023-02-02T09:10:19.050Z,11.0
2023-02-02T09:15:19.281Z,11.0
2023-02-02T09:20:20.613Z,11.4
2023-02-02T09:25:16.057Z,10.9
2023-02-02T09:30:16.009Z,10.9
2023-02-02T09:35:19.291Z,11.3
2023-02-02T09:40:19.429Z,11.3
2023-02-02T09:45:19.499Z,11.3
2023-02-02T09:50:19.280Z,11.3
2023-02-02T09:55:19.280Z,11.2
2023-02-02T10:00:19.294Z,11.2
2023-02-02T10:05:19.232Z,11.2
2023-02-02T10:10:19.278Z,11.2
2023-02-02T10:15:19.266Z,11.5
2023-02-02T10:20:16.099Z,11.5
2023-02-02T10:25:19.445Z,11.8
2023-02-02T10:30:19.392Z,11.5
2023-02-02T10:35:19.323Z,11.8
2023-02-02T10:40:19.415Z,11.8
2023-02-02T10:45:19.393Z,11.5
2023-02-02T10:50:19.536Z,11.8
2023-02-02T10:55:19.466Z,11.5
2023-02-02T11:00:22.572Z,11.9
2023-02-02T11:05:19.462Z,11.9
2023-02-02T11:10:16.469Z,11.9
2023-02-02T11:15:16.361Z,11.9
2023-02-02T11:20:19.778Z,12.3
2023-02-02T11:25:19.515Z,12.3
2023-02-02T11:30:19.585Z,12.3
2023-02-02T11:35:19.683Z,12.3
2023-02-02T11:40:19.599Z,12.6
2023-02-02T11:45:19.559Z,12.3
2023-02-02T11:50:19.473Z,12.3
2023-02-02T11:55:19.622Z,12.3
2023-02-02T12:00:19.634Z,12.3
2023-02-02T12:05:16.482Z,12.3
2023-02-02T12:10:16.539Z,12.3
2023-02-02T12:15:19.812Z,12.7
2023-02-02T12:20:16.660Z,12.8
2023-02-02T12:25:19.796Z,12.8
2023-02-02T12:30:19.708Z,12.5
2023-02-02T12:35:19.714Z,13.0
2023-02-02T12:40:19.838Z,13.1
2023-02-02T12:45:19.748Z,12.7
2023-02-02T12:50:19.863Z,12.9
2023-02-02T12:55:19.788Z,13.4
2023-02-02T13:00:16.682Z,13.5
2023-02-02T13:05:19.914Z,13.4
2023-02-02T13:10:19.841Z,13.5
2023-02-02T13:15:20.949Z,13.7
2023-02-02T13:20:19.895Z,13.8
2023-02-02T13:25:19.881Z,13.6
2023-02-02T13:30:19.922Z,14.2
2023-02-02T13:35:19.893Z,13.9
2023-02-02T13:40:19.904Z,14.1
2023-02-02T13:45:20.014Z,14.2
2023-02-02T13:50:16.891Z,14.8
2023-02-02T13:55:16.760Z,14.1
2023-02-02T14:00:19.888Z,14.3
2023-02-02T14:05:19.895Z,14.4
2023-02-02T14:10:19.977Z,14.5
2023-02-02T14:15:20.016Z,14.3
2023-02-02T14:20:19.928Z,14.9
2023-02-02T14:25:19.979Z,14.8
2023-02-02T14:30:19.985Z,15.0
2023-02-02T14:35:20.059Z,15.2
2023-02-02T14:40:20.031Z,14.9
2023-02-02T14:45:17.042Z,15.3
2023-02-02T14:50:16.952Z,15.0
2023-02-02T14:55:20.130Z,14.7
2023-02-02T15:00:20.165Z,15.4
2023-02-02T15:05:20.096Z,15.2
2023-02-02T15:10:20.105Z,14.9
2023-02-02T15:15:20.129Z,15.1
2023-02-02T15:20:20.168Z,15.6
2023-02-02T15:25:20.139Z,16.6
2023-02-02T15:30:20.231Z,16.1
2023-02-02T15:35:20.206Z,16.2
2023-02-02T15:40:17.103Z,15.7
2023-02-02T15:45:20.182Z,15.8
2023-02-02T15:50:20.219Z,15.3
2023-02-02T15:55:20.212Z,15.2
2023-02-02T16:00:20.366Z,15.7
2023-02-02T16:05:20.258Z,15.7
2023-02-02T16:10:20.304Z,16.3
2023-02-02T16:15:20.250Z,15.5
2023-02-02T16:20:20.244Z,15.7
2023-02-02T16:25:20.366Z,16.1
2023-02-02T16:30:17.179Z,15.8
2023-02-02T16:35:17.205Z,16.2
2023-02-02T16:40:22.593Z,15.9
2023-02-02T16:45:20.395Z,16.1
2023-02-02T16:50:20.396Z,16.7
2023-02-02T16:55:20.403Z,15.7
2023-02-02T17:00:20.360Z,16.9
2023-02-02T17:05:20.476Z,16.3
2023-02-02T17:10:20.430Z,15.9
2023-02-02T17:15:20.457Z,16.2
2023-02-02T17:20:20.507Z,16.9
2023-02-02T17:25:17.334Z,16.4
2023-02-02T17:30:17.388Z,15.6
2023-02-02T17:35:20.514Z,15.3
2023-02-02T17:40:20.599Z,15.2
2023-02-02T17:45:20.489Z,15.4
2023-02-02T17:50:20.597Z,16.1
2023-02-02T17:55:20.542Z,15.2
2023-02-02T18:00:20.541Z,15.4
2023-02-02T18:05:20.594Z,15.5
2023-02-02T18:10:20.590Z,16.0
2023-02-02T18:15:17.592Z,15.6
2023-02-02T18:20:17.354Z,15.8
2023-02-02T18:25:18.817Z,15.4
2023-02-02T18:30:18.717Z,15.0
2023-02-02T18:35:18.655Z,15.1
2023-02-02T18:40:18.645Z,14.6
2023-02-02T18:45:18.736Z,14.6
2023-02-02T18:50:18.690Z,14.2
2023-02-02T18:55:15.584Z,13.9
2023-02-02T19:00:15.547Z,13.9
2023-02-02T19:05:18.721Z,14.5
2023-02-02T19:10:18.735Z,15.1
2023-02-02T19:15:18.664Z,15.7
2023-02-02T19:20:18.787Z,14.2
2023-02-02T19:25:18.769Z,13.3
2023-02-02T19:30:18.708Z,14.4
2023-02-02T19:35:18.833Z,13.5
2023-02-02T19:40:18.718Z,13.6
2023-02-02T19:45:18.886Z,13.1
2023-02-02T19:50:15.665Z,13.7
2023-02-02T19:55:18.913Z,14.3
2023-02-02T20:00:18.842Z,13.2
2023-02-02T20:05:18.992Z,14.1
2023-02-02T20:10:18.775Z,13.1
2023-02-02T20:15:18.771Z,12.7
2023-02-02T20:20:18.730Z,12.8
2023-02-02T20:25:18.916Z,12.2
2023-02-02T20:30:18.981Z,12.2
2023-02-02T20:35:18.794Z,13.4
2023-02-02T20:40:15.776Z,12.8
2023-02-02T20:45:15.694Z,11.7
2023-02-02T20:50:19.972Z,12.4
2023-02-02T20:55:19.983Z,11.6
2023-02-02T21:00:20.041Z,11.5
2023-02-02T21:05:19.929Z,12.1
2023-02-02T21:10:19.989Z,12.0
2023-02-02T21:15:16.847Z,12.5
2023-02-02T21:20:16.859Z,11.9
2023-02-02T21:25:20.033Z,11.8
2023-02-02T21:30:19.971Z,11.7
2023-02-02T21:35:20.081Z,12.3
2023-02-02T21:40:19.992Z,12.2
2023-02-02T21:45:20.014Z,12.2
2023-02-02T21:50:20.024Z,12.0
2023-02-02T21:55:20.075Z,11.9
2023-02-02T22:00:20.106Z,11.8
2023-02-02T22:05:20.130Z,12.2
2023-02-02T22:10:17.034Z,12.2
2023-02-02T22:15:17.107Z,12.0
2023-02-02T22:20:20.120Z,12.3
2023-02-02T22:25:20.129Z,12.5
2023-02-02T22:30:20.238Z,12.9
2023-02-02T22:35:20.140Z,13.0
2023-02-02T22:40:20.186Z,12.9
2023-02-02T22:45:20.229Z,12.8
2023-02-02T22:50:20.121Z,12.7
2023-02-02T22:55:20.175Z,13.0
2023-02-02T23:00:20.253Z,12.9
2023-02-02T23:05:17.100Z,13.2
2023-02-02T23:10:20.264Z,13.1
2023-02-02T23:15:20.344Z,13.4
2023-02-02T23:20:20.236Z,13.2
2023-02-02T23:25:20.239Z,13.1
2023-02-02T23:30:20.422Z,13.1
2023-02-02T23:35:20.192Z,13.0
2023-02-02T23:40:20.379Z,12.9
2023-02-02T23:45:20.338Z,13.4
2023-02-02T23:50:20.304Z,13.3
2023-02-02T23:55:17.283Z,13.6
